Time;durP1;ratioP1;P1;durP2;ratioP2;P2;SDS_P1;SDS_P2;PMS_P1;PMS_P2;Temp;Humidity;BMP_temperature;BMP_pressure;BME280_temperature;BME280_humidity;BME280_pressure;Samples;Min_cycle;Max_cycle;Signal;HPM_P1;HPM_P2
2023/04/22 00:04:37;;;;;;;;;;;;;;;10.66;55.42;92345.06;2058766;69;20112;-80
2023/04/22 00:07:08;;;;;;;;;;;;;;;10.58;55.24;92350.25;2058525;69;20497;-81
2023/04/22 00:09:35;;;;;;;;;;;;;;;10.55;55.68;92338.16;2058939;69;20050;-80
2023/04/22 00:12:05;;;;;;;;;;;;;;;10.45;55.81;92340.44;2058372;69;20141;-81
2023/04/22 00:18:06;;;;;;;;;;;;;;;10.41;56.19;92348.66;2061023;69;20053;-81
2023/04/22 00:20:36;;;;;;;;;;;;;;;10.39;57.24;92342.91;2056268;69;20062;-80
2023/04/22 00:23:02;;;;;;;;;;;;;;;10.34;56.60;92341.22;2058963;69;20145;-80
2023/04/22 00:25:28;;;;;;;;;;;;;;;10.41;56.95;92340.22;2058740;69;20208;-81
2023/04/22 00:27:54;;;;;;;;;;;;;;;10.23;58.12;92339.16;2058066;69;20057;-80
2023/04/22 00:30:20;;;;;;;;;;;;;;;10.19;57.56;92334.03;2055266;69;20050;-81
2023/04/22 00:36:15;;;;;;;;;;;;;;;10.25;56.76;92342.09;2058415;69;20081;-77
2023/04/22 00:38:48;;;;;;;;;;;;;;;10.18;57.10;92341.75;2054781;69;20086;-79
2023/04/22 00:41:16;;;;;;;;;;;;;;;10.17;57.10;92339.53;2058093;69;20500;-80
2023/04/22 00:54:11;;;;;;;;;;;;;;;9.88;58.24;92360.41;2058046;69;20575;-80
2023/04/22 00:56:37;;;;;;;;;;;;;;;9.80;57.75;92357.13;2054789;69;20086;-79
2023/04/22 00:59:03;;;;;;;;;;;;;;;9.76;57.48;92356.91;2058091;69;20168;-78
2023/04/22 01:01:29;;;;;;;;;;;;;;;9.69;59.15;92355.09;2061818;69;20579;-80
2023/04/22 01:03:55;;;;;;;;;;;;;;;9.74;58.63;92351.16;2061225;69;20462;-77
2023/04/22 01:06:21;;;;;;;;;;;;;;;9.78;57.82;92356.28;2055428;69;20486;-76
2023/04/22 01:08:47;;;;;;;;;;;;;;;9.76;58.42;92358.97;2058475;69;20056;-81
2023/04/22 01:11:13;;;;;;;;;;;;;;;9.77;59.17;92352.75;2060080;69;20400;-80
2023/04/22 01:13:39;;;;;;;;;;;;;;;9.64;59.56;92361.81;2058320;69;20490;-81
2023/04/22 01:16:07;;;;;;;;;;;;;;;9.66;59.39;92365.47;2057966;69;20322;-79
2023/04/22 01:18:34;;;;;;;;;;;;;;;9.70;59.33;92359.34;2058333;69;20497;-79
2023/04/22 01:21:06;;;;;;;;;;;;;;;9.63;59.47;92365.97;2058415;69;20133;-81
2023/04/22 01:23:32;;;;;;;;;;;;;;;9.64;58.74;92359.75;2051961;69;20088;-81
2023/04/22 01:25:58;;;;;;;;;;;;;;;9.70;58.85;92358.63;2054869;69;20123;-81
2023/04/22 01:31:52;;;;;;;;;;;;;;;9.55;58.80;92359.88;2058121;69;20052;-78
2023/04/22 01:34:18;;;;;;;;;;;;;;;9.51;59.02;92362.44;2054665;69;20137;-78
2023/04/22 01:36:46;;;;;;;;;;;;;;;9.45;60.22;92370.53;2057791;69;20417;-80
2023/04/22 01:39:15;;;;;;;;;;;;;;;9.65;58.63;92369.63;2053656;70;20043;-80
2023/04/22 01:41:42;;;;;;;;;;;;;;;9.53;60.25;92371.75;2054546;70;20050;-80
2023/04/22 01:44:11;;;;;;;;;;;;;;;9.48;59.93;92369.28;2054498;70;20085;-81
2023/04/22 01:46:37;;;;;;;;;;;;;;;9.42;59.54;92378.09;2054359;70;20113;-80
2023/04/22 01:49:05;;;;;;;;;;;;;;;9.43;59.49;92380.28;2050843;70;20046;-77
2023/04/22 01:51:31;;;;;;;;;;;;;;;9.36;59.85;92383.34;2051293;70;20081;-79
2023/04/22 01:53:56;;;;;;;;;;;;;;;9.45;59.56;92385.31;2054546;70;20054;-80
2023/04/22 01:56:22;;;;;;;;;;;;;;;9.23;60.18;92381.16;2054549;70;20089;-79
2023/04/22 01:58:51;;;;;;;;;;;;;;;9.30;59.67;92386.53;2051564;70;20058;-81
2023/04/22 02:01:19;;;;;;;;;;;;;;;9.29;60.55;92384.31;2054761;70;20078;-81
2023/04/22 02:03:45;;;;;;;;;;;;;;;9.37;60.51;92382.72;2054669;70;20082;-81
2023/04/22 02:06:15;;;;;;;;;;;;;;;9.40;59.29;92375.91;2051734;70;20057;-76
2023/04/22 02:08:40;;;;;;;;;;;;;;;9.30;59.17;92378.13;2055304;70;20046;-82
2023/04/22 02:11:06;;;;;;;;;;;;;;;9.28;59.63;92377.25;2054925;70;20147;-79
2023/04/22 02:13:35;;;;;;;;;;;;;;;9.23;59.25;92375.53;2055357;70;20046;-78
2023/04/22 02:16:00;;;;;;;;;;;;;;;9.10;60.44;92379.69;2056381;70;20049;-81
2023/04/22 02:18:26;;;;;;;;;;;;;;;9.11;60.07;92375.53;2055773;70;20058;-81
2023/04/22 02:20:51;;;;;;;;;;;;;;;9.08;59.67;92374.69;2048670;70;20046;-81
2023/04/22 02:26:46;;;;;;;;;;;;;;;8.97;60.37;92378.19;2054757;69;20050;-81
2023/04/22 02:29:12;;;;;;;;;;;;;;;8.94;59.92;92371.00;2054015;70;20054;-81
2023/04/22 02:31:37;;;;;;;;;;;;;;;8.93;60.63;92371.59;2051287;70;20129;-81
2023/04/22 02:34:03;;;;;;;;;;;;;;;8.87;60.51;92374.78;2051211;70;20046;-82
2023/04/22 02:36:30;;;;;;;;;;;;;;;8.77;61.53;92377.69;2051700;70;20141;-81
2023/04/22 02:38:57;;;;;;;;;;;;;;;8.89;61.43;92375.66;2051704;70;20050;-81
2023/04/22 02:41:22;;;;;;;;;;;;;;;8.93;60.88;92374.41;2036000;70;20072;-79
2023/04/22 02:43:48;;;;;;;;;;;;;;;8.82;60.92;92370.97;2054880;69;20082;-80
2023/04/22 02:46:17;;;;;;;;;;;;;;;8.74;61.71;92366.94;2039322;70;20147;-81
2023/04/22 02:48:43;;;;;;;;;;;;;;;8.92;59.54;92365.25;2039162;70;20163;-76
2023/04/22 02:51:08;;;;;;;;;;;;;;;8.97;59.14;92369.03;2039188;69;20040;-81
2023/04/22 02:53:33;;;;;;;;;;;;;;;8.82;60.38;92368.19;2035934;70;20083;-81
2023/04/22 02:55:59;;;;;;;;;;;;;;;8.82;60.47;92365.38;2036686;70;20439;-79
2023/04/22 02:58:25;;;;;;;;;;;;;;;8.79;60.49;92358.16;2041956;70;20070;-78
2023/04/22 03:00:51;;;;;;;;;;;;;;;8.67;61.12;92365.13;2037492;70;20416;-81
2023/04/22 03:03:17;;;;;;;;;;;;;;;8.68;60.94;92363.75;2033636;70;20067;-81
2023/04/22 03:05:42;;;;;;;;;;;;;;;8.69;61.19;92371.56;2039345;70;20056;-82
2023/04/22 03:08:08;;;;;;;;;;;;;;;8.68;60.61;92377.78;2039341;70;20050;-81
2023/04/22 03:10:33;;;;;;;;;;;;;;;8.59;60.80;92377.28;2036014;70;20143;-81
2023/04/22 03:12:59;;;;;;;;;;;;;;;8.35;61.22;92376.47;2035933;70;20095;-81
2023/04/22 03:15:25;;;;;;;;;;;;;;;8.56;61.59;92374.94;2039247;70;20482;-81
2023/04/22 03:17:50;;;;;;;;;;;;;;;8.57;61.41;92379.25;2035838;70;20055;-82
2023/04/22 03:20:18;;;;;;;;;;;;;;;8.45;60.67;92379.19;2035922;70;20080;-82
2023/04/22 03:22:44;;;;;;;;;;;;;;;8.44;60.35;92386.16;2054712;69;20052;-81
2023/04/22 03:25:11;;;;;;;;;;;;;;;8.62;61.09;92383.78;2039115;69;20420;-77
2023/04/22 03:27:37;;;;;;;;;;;;;;;8.60;59.87;92384.34;2035836;70;20051;-76
2023/04/22 03:30:03;;;;;;;;;;;;;;;8.48;59.94;92380.81;2054714;69;20445;-79
2023/04/22 03:32:29;;;;;;;;;;;;;;;8.52;59.54;92392.28;2035763;70;20056;-78
2023/04/22 03:35:10;;;;;;;;;;;;;;;8.56;60.30;92389.72;2035798;70;20048;-73
2023/04/22 03:41:04;;;;;;;;;;;;;;;8.54;60.04;92386.06;2057178;69;20041;-81
2023/04/22 03:43:39;;;;;;;;;;;;;;;8.47;60.57;92375.78;2054859;69;20174;-77
2023/04/22 03:46:07;;;;;;;;;;;;;;;8.47;60.15;92375.78;2054930;69;20164;-79
2023/04/22 03:48:34;;;;;;;;;;;;;;;8.45;60.39;92379.19;2054954;69;20516;-75
2023/04/22 03:51:03;;;;;;;;;;;;;;;8.39;61.27;92387.97;2055115;69;20435;-76
2023/04/22 03:53:32;;;;;;;;;;;;;;;8.39;61.50;92379.56;2054937;69;20143;-78
2023/04/22 03:55:58;;;;;;;;;;;;;;;8.36;61.43;92375.16;2055091;69;20058;-76
2023/04/22 03:58:23;;;;;;;;;;;;;;;8.33;61.49;92370.72;2058392;69;20090;-75
2023/04/22 04:00:50;;;;;;;;;;;;;;;8.45;61.32;92372.84;2055542;69;20478;-77
2023/04/22 04:03:17;;;;;;;;;;;;;;;8.36;60.72;92354.75;2057569;69;20086;-75
2023/04/22 04:05:46;;;;;;;;;;;;;;;8.55;60.58;92368.59;2062553;69;20517;-76
2023/04/22 04:08:11;;;;;;;;;;;;;;;8.54;60.17;92369.22;2057301;69;20050;-79
2023/04/22 04:10:36;;;;;;;;;;;;;;;8.73;60.05;92363.41;2055995;69;20142;-80
2023/04/22 04:13:03;;;;;;;;;;;;;;;8.63;59.34;92354.38;2055758;69;20052;-80
2023/04/22 04:15:36;;;;;;;;;;;;;;;8.54;59.70;92369.22;2039238;69;20199;-80
2023/04/22 04:18:02;;;;;;;;;;;;;;;8.42;59.35;92369.19;2054905;69;20120;-80
2023/04/22 04:20:30;;;;;;;;;;;;;;;8.55;60.41;92367.88;2035825;70;20440;-80
2023/04/22 04:22:55;;;;;;;;;;;;;;;8.59;60.67;92365.34;2035747;70;20075;-77
2023/04/22 04:25:21;;;;;;;;;;;;;;;8.74;59.55;92366.94;2054593;69;20052;-78
2023/04/22 04:27:49;;;;;;;;;;;;;;;8.83;58.46;92366.84;2051738;69;20070;-78
2023/04/22 04:30:15;;;;;;;;;;;;;;;8.90;57.91;92367.94;2054528;69;20051;-79
2023/04/22 04:32:45;;;;;;;;;;;;;;;8.97;57.70;92377.47;2051687;70;20504;-79
2023/04/22 04:35:13;;;;;;;;;;;;;;;8.98;57.73;92371.25;2054797;69;20441;-75
2023/04/22 04:37:45;;;;;;;;;;;;;;;8.88;58.57;92379.03;2054911;69;20054;-80
2023/04/22 04:40:13;;;;;;;;;;;;;;;8.98;57.73;92378.94;2050408;69;20087;-79
2023/04/22 04:43:03;;;;;;;;;;;;;;;9.05;57.89;92372.34;2053215;69;20087;-80
2023/04/22 04:45:38;;;;;;;;;;;;;;;9.00;57.05;92374.19;2054942;69;20054;-80
2023/04/22 04:48:08;;;;;;;;;;;;;;;9.01;55.71;92374.91;2054845;69;20100;-80
2023/04/22 04:50:36;;;;;;;;;;;;;;;8.98;55.07;92378.94;2059321;69;20072;-80
2023/04/22 04:53:02;;;;;;;;;;;;;;;8.99;55.82;92381.16;2059750;69;20065;-80
2023/04/22 04:55:34;;;;;;;;;;;;;;;9.04;55.64;92374.44;2055336;69;20046;-81
2023/04/22 04:58:03;;;;;;;;;;;;;;;9.10;55.95;92380.41;2054743;69;20478;-81
2023/04/22 05:00:29;;;;;;;;;;;;;;;9.18;56.82;92387.88;2057654;69;20057;-81
2023/04/22 05:02:55;;;;;;;;;;;;;;;9.21;55.76;92383.81;2054762;69;20070;-81
2023/04/22 05:05:20;;;;;;;;;;;;;;;9.25;56.54;92384.06;2054884;69;20137;-77
2023/04/22 05:07:47;;;;;;;;;;;;;;;9.21;56.80;92387.41;2054838;69;20078;-77
2023/04/22 05:10:14;;;;;;;;;;;;;;;9.22;56.50;92376.88;2054518;69;20149;-79
2023/04/22 05:12:40;;;;;;;;;;;;;;;9.29;56.12;92376.63;2054876;69;20141;-81
2023/04/22 05:15:07;;;;;;;;;;;;;;;9.37;56.81;92371.50;2054851;69;20054;-80
2023/04/22 05:17:33;;;;;;;;;;;;;;;9.24;56.86;92383.34;2054792;69;20203;-80
2023/04/22 05:19:58;;;;;;;;;;;;;;;9.09;58.32;92384.56;2054968;69;20066;-81
2023/04/22 05:25:53;;;;;;;;;;;;;;;9.27;57.89;92393.38;2058178;69;20053;-79
2023/04/22 05:28:19;;;;;;;;;;;;;;;9.31;58.18;92398.50;2057596;69;20058;-79
2023/04/22 05:30:49;;;;;;;;;;;;;;;9.27;58.35;92398.97;2054805;69;20054;-76
2023/04/22 05:33:15;;;;;;;;;;;;;;;9.32;58.18;92397.88;2058100;69;20509;-79
2023/04/22 05:35:41;;;;;;;;;;;;;;;9.34;58.29;92402.88;2054782;69;20042;-80
2023/04/22 05:38:07;;;;;;;;;;;;;;;9.15;60.11;92403.84;2054850;69;20054;-79
2023/04/22 05:40:35;;;;;;;;;;;;;;;9.26;58.66;92408.03;2053734;70;20082;-79
2023/04/22 05:43:02;;;;;;;;;;;;;;;9.24;59.88;92400.19;2051623;70;20145;-81
2023/04/22 05:45:28;;;;;;;;;;;;;;;9.32;59.16;92411.94;2051559;70;20502;-81
2023/04/22 05:47:54;;;;;;;;;;;;;;;9.25;59.19;92401.66;2048684;70;20046;-81
2023/04/22 05:50:20;;;;;;;;;;;;;;;9.35;59.26;92405.09;2052097;70;20489;-72
2023/04/22 05:52:57;;;;;;;;;;;;;;;9.39;59.25;92413.03;2055503;70;20162;-76
2023/04/22 05:55:23;;;;;;;;;;;;;;;9.26;59.31;92402.41;2055493;70;20535;-73
2023/04/22 05:57:50;;;;;;;;;;;;;;;9.36;59.45;92405.81;2051645;70;20046;-81
2023/04/22 06:00:35;;;;;;;;;;;;;;;9.49;59.23;92407.28;2052808;70;20144;-78
2023/04/22 06:03:17;;;;;;;;;;;;;;;9.43;60.26;92405.56;2051346;70;20054;-79
2023/04/22 06:05:43;;;;;;;;;;;;;;;9.37;59.79;92405.22;2051525;70;20054;-79
2023/04/22 06:08:08;;;;;;;;;;;;;;;9.53;59.13;92399.09;2051481;70;20047;-81
2023/04/22 06:10:34;;;;;;;;;;;;;;;9.53;60.47;92404.69;2051755;70;20054;-76
2023/04/22 06:13:00;;;;;;;;;;;;;;;9.63;60.50;92406.06;2054911;70;20435;-73
2023/04/22 06:15:25;;;;;;;;;;;;;;;9.74;58.80;92406.66;2052027;70;20078;-73
2023/04/22 06:17:51;;;;;;;;;;;;;;;9.84;59.52;92407.97;2053050;70;20043;-71
2023/04/22 06:20:16;;;;;;;;;;;;;;;9.77;57.99;92406.16;2051988;70;20047;-80
2023/04/22 06:22:42;;;;;;;;;;;;;;;9.88;58.59;92405.41;2052185;70;20406;-77
2023/04/22 06:25:08;;;;;;;;;;;;;;;10.00;59.71;92404.66;2055979;70;20051;-82
2023/04/22 06:27:34;;;;;;;;;;;;;;;9.96;58.82;92404.41;2052118;70;20398;-82
2023/04/22 06:30:00;;;;;;;;;;;;;;;10.05;57.82;92404.28;2052237;70;20054;-82
2023/04/22 06:32:25;;;;;;;;;;;;;;;10.26;57.32;92405.44;2049401;70;20066;-83
2023/04/22 06:34:51;;;;;;;;;;;;;;;10.42;56.14;92407.13;2055633;70;20109;-84
2023/04/22 06:37:17;;;;;;;;;;;;;;;10.42;54.30;92406.38;2053607;70;20057;-85
2023/04/22 06:39:43;;;;;;;;;;;;;;;10.57;53.47;92419.91;2052349;70;20446;-83
2023/04/22 06:42:29;;;;;;;;;;;;;;;10.58;52.88;92412.94;2047273;69;20054;-76
2023/04/22 06:45:13;;;;;;;;;;;;;;;10.83;52.33;92414.28;2065486;69;20505;-85
2023/04/22 06:47:52;;;;;;;;;;;;;;;11.13;54.43;92420.81;2056541;69;20061;-83
2023/04/22 06:50:21;;;;;;;;;;;;;;;11.18;52.56;92417.63;2055475;69;20084;-82
2023/04/22 06:52:53;;;;;;;;;;;;;;;11.36;52.82;92420.69;2055272;69;20052;-82
2023/04/22 06:55:19;;;;;;;;;;;;;;;11.44;51.44;92423.94;2055179;69;20050;-81
2023/04/22 06:57:44;;;;;;;;;;;;;;;11.45;50.57;92414.13;2055238;69;20048;-82
2023/04/22 07:00:10;;;;;;;;;;;;;;;11.45;49.28;92416.94;2058553;69;20140;-81
2023/04/22 07:02:38;;;;;;;;;;;;;;;11.63;48.45;92405.88;2052425;69;20054;-73
2023/04/22 07:05:04;;;;;;;;;;;;;;;11.95;47.03;92404.03;2055213;69;20142;-83
2023/04/22 07:07:29;;;;;;;;;;;;;;;12.48;47.63;92397.47;2057893;69;20058;-83
2023/04/22 07:09:55;;;;;;;;;;;;;;;12.51;47.13;92399.03;2057977;69;20402;-81
2023/04/22 07:12:24;;;;;;;;;;;;;;;12.95;46.51;92408.91;2055145;69;20054;-81
2023/04/22 07:14:50;;;;;;;;;;;;;;;13.21;46.84;92403.03;2058469;69;20053;-79
2023/04/22 07:17:18;;;;;;;;;;;;;;;13.26;46.41;92401.16;2058298;69;20068;-79
2023/04/22 07:19:43;;;;;;;;;;;;;;;13.55;44.32;92406.00;2058380;69;20141;-80
2023/04/22 07:22:09;;;;;;;;;;;;;;;13.86;43.00;92405.25;2054969;69;20062;-75
2023/04/22 07:24:34;;;;;;;;;;;;;;;14.12;42.69;92400.75;2058448;69;20497;-79
2023/04/22 07:27:01;;;;;;;;;;;;;;;14.48;43.52;92398.75;2058429;69;20054;-80
2023/04/22 07:29:26;;;;;;;;;;;;;;;14.86;43.62;92393.19;2058544;69;20074;-77
2023/04/22 07:31:52;;;;;;;;;;;;;;;14.91;41.96;92388.41;2058284;69;20053;-77
2023/04/22 07:34:17;;;;;;;;;;;;;;;15.19;40.27;92388.81;2058371;69;20049;-74
2023/04/22 07:36:43;;;;;;;;;;;;;;;15.23;39.99;92386.84;2058338;69;20038;-76
2023/04/22 07:39:08;;;;;;;;;;;;;;;15.79;41.63;92389.66;2058564;69;20478;-81
2023/04/22 07:41:34;;;;;;;;;;;;;;;15.97;39.27;92373.28;2059280;69;20054;-76
2023/04/22 07:44:00;;;;;;;;;;;;;;;16.20;38.81;92377.63;2058603;69;20046;-72
2023/04/22 07:46:26;;;;;;;;;;;;;;;15.82;36.95;92376.28;2055151;69;20069;-74
2023/04/22 07:48:51;;;;;;;;;;;;;;;16.15;37.80;92375.31;2058372;69;20500;-81
2023/04/22 07:51:16;;;;;;;;;;;;;;;16.47;39.28;92384.97;2058348;69;20061;-75
2023/04/22 07:53:42;;;;;;;;;;;;;;;16.86;35.66;92374.16;2058290;69;20053;-74
2023/04/22 07:56:07;;;;;;;;;;;;;;;17.26;35.68;92381.13;2058351;69;20050;-76
2023/04/22 07:58:33;;;;;;;;;;;;;;;17.42;36.71;92372.38;2058244;69;20046;-80
2023/04/22 08:00:58;;;;;;;;;;;;;;;17.16;35.55;92371.56;2058291;69;20042;-80
2023/04/22 08:03:23;;;;;;;;;;;;;;;18.10;36.11;92368.63;2054892;69;20046;-80
2023/04/22 08:05:49;;;;;;;;;;;;;;;17.61;34.40;92370.81;2057941;69;20053;-77
2023/04/22 08:08:14;;;;;;;;;;;;;;;17.61;35.56;92367.97;2058213;69;20149;-78
2023/04/22 08:10:40;;;;;;;;;;;;;;;18.05;35.83;92362.09;2058363;69;20090;-83
2023/04/22 08:13:07;;;;;;;;;;;;;;;18.67;32.30;92365.19;2058245;69;20046;-83
2023/04/22 08:15:32;;;;;;;;;;;;;;;18.87;31.02;92358.56;2058284;69;20075;-81
2023/04/22 08:17:58;;;;;;;;;;;;;;;18.35;31.89;92358.63;2058226;69;20053;-82
2023/04/22 08:20:24;;;;;;;;;;;;;;;19.20;31.31;92357.97;2058657;69;20084;-82
2023/04/22 08:22:50;;;;;;;;;;;;;;;19.58;31.02;92340.25;2055062;69;20046;-81
2023/04/22 08:25:16;;;;;;;;;;;;;;;19.50;30.15;92346.50;2058430;69;20073;-82
2023/04/22 08:27:41;;;;;;;;;;;;;;;20.09;32.88;92340.59;2058403;69;20054;-81
2023/04/22 08:30:07;;;;;;;;;;;;;;;20.27;32.00;92344.53;2058724;69;20054;-81
2023/04/22 08:32:32;;;;;;;;;;;;;;;20.64;30.34;92339.50;2058077;69;20082;-78
2023/04/22 08:34:58;;;;;;;;;;;;;;;20.80;29.28;92336.94;2058422;69;20042;-80
2023/04/22 08:37:24;;;;;;;;;;;;;;;20.89;29.65;92334.94;2059109;69;20137;-79
2023/04/22 08:39:49;;;;;;;;;;;;;;;21.16;31.51;92338.22;2063642;69;20057;-79
2023/04/22 08:42:15;;;;;;;;;;;;;;;21.48;30.77;92335.16;2061747;69;20050;-75
2023/04/22 08:44:41;;;;;;;;;;;;;;;21.44;31.11;92330.13;2058322;69;20050;-79
2023/04/22 08:47:07;;;;;;;;;;;;;;;21.53;30.32;92328.06;2058638;69;20149;-78
2023/04/22 08:49:33;;;;;;;;;;;;;;;21.44;27.79;92324.38;2055050;69;20066;-78
2023/04/22 08:51:59;;;;;;;;;;;;;;;21.25;26.76;92322.63;2057896;69;20482;-78
2023/04/22 08:54:24;;;;;;;;;;;;;;;21.94;27.13;92325.75;2058203;69;20053;-75
2023/04/22 08:56:50;;;;;;;;;;;;;;;22.04;28.13;92320.88;2058311;69;20053;-78
2023/04/22 08:59:17;;;;;;;;;;;;;;;22.87;25.67;92319.63;2058330;69;20073;-77
2023/04/22 09:01:43;;;;;;;;;;;;;;;23.24;27.58;92312.78;2052153;69;20050;-79
2023/04/22 09:04:09;;;;;;;;;;;;;;;22.12;25.39;92311.66;2058175;69;20049;-81
2023/04/22 09:06:34;;;;;;;;;;;;;;;22.45;26.65;92309.91;2043597;69;20513;-77
2023/04/22 09:09:00;;;;;;;;;;;;;;;22.11;27.12;92309.47;2038445;70;20239;-77
2023/04/22 09:11:28;;;;;;;;;;;;;;;22.20;27.82;92303.16;2051600;70;20060;-80
2023/04/22 09:13:53;;;;;;;;;;;;;;;22.37;27.08;92301.22;2038953;70;20071;-81
2023/04/22 09:16:19;;;;;;;;;;;;;;;22.35;26.31;92292.56;2058019;69;20376;-75
2023/04/22 09:18:47;;;;;;;;;;;;;;;23.14;27.40;92294.75;2058245;69;20413;-77
2023/04/22 09:21:12;;;;;;;;;;;;;;;23.34;27.93;92292.75;2049489;69;20054;-77
2023/04/22 09:23:48;;;;;;;;;;;;;;;24.98;24.49;92293.41;2057966;69;20144;-77
2023/04/22 09:26:14;;;;;;;;;;;;;;;23.57;25.17;92290.03;2058143;69;20061;-77
2023/04/22 09:28:47;;;;;;;;;;;;;;;23.39;25.32;92284.16;2058339;69;20051;-79
2023/04/22 09:31:13;;;;;;;;;;;;;;;23.51;23.81;92281.38;2049448;69;20403;-80
2023/04/22 09:33:38;;;;;;;;;;;;;;;23.76;26.12;92273.63;2054478;69;20137;-78
2023/04/22 09:36:14;;;;;;;;;;;;;;;23.83;24.08;92269.38;2057894;69;20093;-80
2023/04/22 09:38:39;;;;;;;;;;;;;;;24.79;23.18;92272.53;2058126;69;20058;-79
2023/04/22 09:41:08;;;;;;;;;;;;;;;24.80;22.76;92274.69;2058039;69;20053;-79
2023/04/22 09:43:33;;;;;;;;;;;;;;;24.77;24.15;92261.72;2058003;69;20082;-79
2023/04/22 09:45:59;;;;;;;;;;;;;;;25.12;24.34;92264.66;2057948;69;20171;-80
2023/04/22 09:48:25;;;;;;;;;;;;;;;24.45;24.27;92271.03;2058043;69;20056;-79
2023/04/22 09:50:51;;;;;;;;;;;;;;;23.54;25.93;92262.69;2058182;69;20046;-80
2023/04/22 09:53:17;;;;;;;;;;;;;;;23.41;25.16;92258.31;2058013;69;20076;-78
2023/04/22 09:55:44;;;;;;;;;;;;;;;25.24;25.98;92255.97;2042308;69;20060;-78
2023/04/22 09:58:11;;;;;;;;;;;;;;;25.40;23.20;92249.50;2037197;70;20052;-79
2023/04/22 10:00:42;;;;;;;;;;;;;;;25.41;23.34;92245.16;2057801;69;20661;-76
2023/04/22 10:03:07;;;;;;;;;;;;;;;25.92;23.95;92242.16;2058118;69;20518;-75
2023/04/22 10:05:36;;;;;;;;;;;;;;;25.34;23.82;92240.88;2054914;69;20094;-79
2023/04/22 10:08:06;;;;;;;;;;;;;;;27.14;22.43;92237.19;2057991;69;20050;-78
2023/04/22 10:10:32;;;;;;;;;;;;;;;26.79;22.22;92238.13;2054223;69;20058;-77
2023/04/22 10:12:58;;;;;;;;;;;;;;;29.06;21.41;92230.59;2057888;69;20503;-79
2023/04/22 10:15:24;;;;;;;;;;;;;;;28.31;22.57;92234.50;2057865;69;20057;-78
2023/04/22 10:17:51;;;;;;;;;;;;;;;28.82;20.24;92233.84;2057451;69;20082;-79
2023/04/22 10:20:17;;;;;;;;;;;;;;;27.89;19.93;92227.78;2057784;69;20077;-78
2023/04/22 10:22:43;;;;;;;;;;;;;;;27.03;21.12;92214.13;2057501;69;20112;-78
2023/04/22 10:25:13;;;;;;;;;;;;;;;27.46;20.25;92216.66;2054557;69;20058;-79
2023/04/22 10:27:38;;;;;;;;;;;;;;;30.04;20.45;92217.25;2054478;69;20050;-76
2023/04/22 10:30:05;;;;;;;;;;;;;;;29.15;18.63;92210.16;2058055;69;20509;-77
2023/04/22 10:32:33;;;;;;;;;;;;;;;29.88;19.25;92203.09;2055455;69;20509;-74
2023/04/22 10:35:09;;;;;;;;;;;;;;;30.44;17.07;92214.31;2060080;69;20054;-77
2023/04/22 10:37:35;;;;;;;;;;;;;;;30.99;17.37;92213.09;2058075;69;20062;-79
2023/04/22 10:40:21;;;;;;;;;;;;;;;32.26;16.76;92214.22;2058141;69;20062;-78
2023/04/22 10:42:51;;;;;;;;;;;;;;;32.62;15.03;92205.91;2057922;69;20223;-79
2023/04/22 10:45:16;;;;;;;;;;;;;;;33.12;16.90;92205.84;2057785;69;20105;-79
2023/04/22 10:47:42;;;;;;;;;;;;;;;35.32;13.67;92206.75;2057803;69;20146;-79
2023/04/22 10:50:10;;;;;;;;;;;;;;;33.28;15.59;92204.63;2057826;69;20054;-77
2023/04/22 10:52:36;;;;;;;;;;;;;;;33.23;15.96;92203.34;2057878;69;20082;-80
2023/04/22 10:55:02;;;;;;;;;;;;;;;35.94;14.86;92204.97;2054659;69;20199;-80
2023/04/22 10:57:36;;;;;;;;;;;;;;;37.80;14.14;92208.19;2058148;69;20054;-80
2023/04/22 11:00:15;;;;;;;;;;;;;;;40.19;13.82;92201.19;2058453;69;20050;-81
2023/04/22 11:02:43;;;;;;;;;;;;;;;37.78;13.20;92194.31;2058214;69;20069;-81
2023/04/22 11:05:17;;;;;;;;;;;;;;;37.67;13.94;92196.34;2058407;69;20042;-79
2023/04/22 11:07:42;;;;;;;;;;;;;;;39.80;12.35;92194.59;2058248;69;20635;-79
2023/04/22 11:10:14;;;;;;;;;;;;;;;38.59;12.95;92194.63;2058167;69;20502;-79
2023/04/22 11:12:41;;;;;;;;;;;;;;;39.76;12.98;92197.75;2058152;69;20086;-79
2023/04/22 11:15:07;;;;;;;;;;;;;;;39.97;12.28;92194.34;2058378;69;20073;-77
2023/04/22 11:21:05;;;;;;;;;;;;;;;37.17;13.76;92194.38;2058360;69;20160;-78
2023/04/22 11:23:30;;;;;;;;;;;;;;;35.07;13.98;92189.50;2058308;69;20038;-79
2023/04/22 11:25:57;;;;;;;;;;;;;;;36.67;15.07;92188.63;2058240;69;20074;-80
2023/04/22 11:28:23;;;;;;;;;;;;;;;37.88;13.12;92187.25;2058291;69;20125;-78
2023/04/22 11:30:48;;;;;;;;;;;;;;;36.25;14.64;92172.16;2058301;69;20113;-77
2023/04/22 11:33:15;;;;;;;;;;;;;;;40.32;12.54;92181.94;2057922;69;20061;-76
2023/04/22 11:35:41;;;;;;;;;;;;;;;40.87;11.69;92181.53;2058017;69;20050;-77
2023/04/22 11:38:07;;;;;;;;;;;;;;;38.22;12.66;92170.09;2057992;69;20154;-76
2023/04/22 11:40:33;;;;;;;;;;;;;;;39.28;12.33;92163.69;2053686;70;20058;-76
2023/04/22 11:42:59;;;;;;;;;;;;;;;37.83;12.70;92160.28;2054811;69;20410;-76
2023/04/22 11:45:25;;;;;;;;;;;;;;;42.54;11.60;92169.88;2054929;70;20069;-78
2023/04/22 11:47:50;;;;;;;;;;;;;;;41.07;9.62;92161.16;2055471;70;20054;-77
2023/04/22 11:50:17;;;;;;;;;;;;;;;40.11;10.39;92155.91;2055086;70;20500;-77
2023/04/22 11:52:53;;;;;;;;;;;;;;;42.77;10.14;92156.53;2055026;70;20038;-78
2023/04/22 11:55:23;;;;;;;;;;;;;;;42.74;10.31;92152.28;2055176;70;20043;-76
2023/04/22 11:57:56;;;;;;;;;;;;;;;44.66;8.95;92150.75;2055068;70;20427;-78
2023/04/22 12:00:23;;;;;;;;;;;;;;;44.17;8.88;92150.78;2055073;70;20050;-77
2023/04/22 12:02:56;;;;;;;;;;;;;;;41.51;9.53;92142.09;2054848;70;20149;-78
2023/04/22 12:05:30;;;;;;;;;;;;;;;43.19;9.53;92146.16;2054891;69;20050;-77
2023/04/22 12:07:56;;;;;;;;;;;;;;;39.76;10.90;92135.91;2054907;70;20056;-75
2023/04/22 12:10:22;;;;;;;;;;;;;;;41.73;10.19;92131.75;2055050;70;20117;-77
2023/04/22 12:12:47;;;;;;;;;;;;;;;39.18;10.55;92120.09;2055137;69;20053;-77
2023/04/22 12:15:13;;;;;;;;;;;;;;;40.94;10.40;92128.03;2054912;70;20086;-77
2023/04/22 12:17:39;;;;;;;;;;;;;;;41.69;10.31;92131.31;2054860;70;20047;-78
2023/04/22 12:20:06;;;;;;;;;;;;;;;40.44;10.72;92132.59;2054940;70;20061;-77
2023/04/22 12:22:32;;;;;;;;;;;;;;;44.45;9.33;92139.75;2051635;70;20054;-77
2023/04/22 12:24:58;;;;;;;;;;;;;;;42.78;8.75;92129.03;2054929;70;20147;-77
2023/04/22 12:27:24;;;;;;;;;;;;;;;45.05;9.02;92130.59;2054824;69;20054;-77
2023/04/22 12:29:51;;;;;;;;;;;;;;;44.99;8.58;92137.00;2054827;70;20124;-77
2023/04/22 12:32:17;;;;;;;;;;;;;;;45.67;9.02;92132.31;2054741;70;20151;-78
2023/04/22 12:34:42;;;;;;;;;;;;;;;41.20;10.20;92119.75;2054861;70;20050;-78
2023/04/22 12:37:08;;;;;;;;;;;;;;;43.65;10.30;92118.34;2055113;70;20062;-79
2023/04/22 12:39:33;;;;;;;;;;;;;;;43.43;9.27;92111.81;2054816;70;20054;-76
2023/04/22 12:41:58;;;;;;;;;;;;;;;42.78;9.26;92107.63;2057766;69;20499;-77
2023/04/22 12:44:24;;;;;;;;;;;;;;;43.80;8.32;92112.03;2057983;69;20054;-76
2023/04/22 12:46:50;;;;;;;;;;;;;;;47.13;7.43;92113.19;2054732;69;20049;-78
2023/04/22 12:49:15;;;;;;;;;;;;;;;47.27;7.41;92108.25;2058030;69;20252;-77
2023/04/22 12:51:40;;;;;;;;;;;;;;;45.05;8.32;92103.19;2058123;69;20042;-78
2023/04/22 12:54:06;;;;;;;;;;;;;;;44.91;8.29;92102.03;2057968;69;20474;-78
2023/04/22 12:56:31;;;;;;;;;;;;;;;43.27;8.91;92098.19;2057940;69;20065;-78
2023/04/22 12:59:01;;;;;;;;;;;;;;;43.74;7.79;92098.38;2058017;69;20053;-78
2023/04/22 13:01:27;;;;;;;;;;;;;;;44.80;7.86;92096.19;2058126;69;20070;-78
2023/04/22 13:03:53;;;;;;;;;;;;;;;43.91;8.46;92100.16;2054941;69;20486;-78
2023/04/22 13:06:18;;;;;;;;;;;;;;;43.90;8.63;92081.66;2059118;69;20513;-78
2023/04/22 13:08:44;;;;;;;;;;;;;;;41.44;9.29;92082.03;2058248;69;20054;-77
2023/04/22 13:11:09;;;;;;;;;;;;;;;45.43;8.42;92084.50;2058112;69;20041;-76
2023/04/22 13:13:35;;;;;;;;;;;;;;;42.38;9.22;92079.31;2057928;69;20152;-77
2023/04/22 13:16:00;;;;;;;;;;;;;;;40.30;10.20;92061.19;2057990;69;20053;-77
2023/04/22 13:18:26;;;;;;;;;;;;;;;41.37;10.29;92064.00;2057889;69;20418;-78
2023/04/22 13:20:53;;;;;;;;;;;;;;;44.32;9.04;92059.19;2054644;69;20109;-78
2023/04/22 13:23:20;;;;;;;;;;;;;;;44.30;8.55;92062.31;2058072;69;20080;-77
2023/04/22 13:25:46;;;;;;;;;;;;;;;42.67;8.45;92062.56;2057996;69;20115;-78
2023/04/22 13:28:12;;;;;;;;;;;;;;;46.01;7.40;92065.63;2058009;69;20438;-78
2023/04/22 13:30:38;;;;;;;;;;;;;;;46.38;7.65;92063.19;2057892;69;20050;-79